sensor_id;sensor_type;location;lat;lon;timestamp;P1;durP1;ratioP1;P2;durP2;ratioP2
84745;SDS011;74975;51.922;6.480;2024-01-25T00:02:07;24.10;;;5.28;;
84745;SDS011;74975;51.922;6.480;2024-01-25T00:04:45;19.45;;;4.88;;
84745;SDS011;74975;51.922;6.480;2024-01-25T00:07:21;28.48;;;6.13;;
84745;SDS011;74975;51.922;6.480;2024-01-25T00:10:01;22.63;;;4.88;;
84745;SDS011;74975;51.922;6.480;2024-01-25T00:12:33;28.45;;;6.57;;
84745;SDS011;74975;51.922;6.480;2024-01-25T00:17:39;21.90;;;4.47;;
84745;SDS011;74975;51.922;6.480;2024-01-25T00:20:13;24.17;;;5.05;;
84745;SDS011;74975;51.922;6.480;2024-01-25T00:22:49;20.02;;;5.00;;
84745;SDS011;74975;51.922;6.480;2024-01-25T00:25:21;28.00;;;5.80;;
84745;SDS011;74975;51.922;6.480;2024-01-25T00:27:56;23.92;;;5.50;;
84745;SDS011;74975;51.922;6.480;2024-01-25T00:30:35;23.65;;;5.57;;
84745;SDS011;74975;51.922;6.480;2024-01-25T00:33:04;23.55;;;5.95;;
84745;SDS011;74975;51.922;6.480;2024-01-25T00:35:41;29.73;;;6.03;;
84745;SDS011;74975;51.922;6.480;2024-01-25T00:38:13;19.45;;;6.35;;
84745;SDS011;74975;51.922;6.480;2024-01-25T00:40:51;27.05;;;7.10;;
84745;SDS011;74975;51.922;6.480;2024-01-25T00:43:26;27.00;;;5.57;;
84745;SDS011;74975;51.922;6.480;2024-01-25T00:46:00;21.67;;;5.57;;
84745;SDS011;74975;51.922;6.480;2024-01-25T00:48:37;24.77;;;5.78;;
84745;SDS011;74975;51.922;6.480;2024-01-25T00:51:15;30.15;;;5.65;;
84745;SDS011;74975;51.922;6.480;2024-01-25T00:53:55;20.98;;;5.60;;
84745;SDS011;74975;51.922;6.480;2024-01-25T00:56:29;18.08;;;4.20;;
84745;SDS011;74975;51.922;6.480;2024-01-25T00:59:04;25.38;;;4.85;;
84745;SDS011;74975;51.922;6.480;2024-01-25T01:01:39;21.50;;;7.90;;
84745;SDS011;74975;51.922;6.480;2024-01-25T01:04:09;27.45;;;6.05;;
84745;SDS011;74975;51.922;6.480;2024-01-25T01:06:40;28.85;;;6.70;;
84745;SDS011;74975;51.922;6.480;2024-01-25T01:09:21;24.05;;;6.13;;
84745;SDS011;74975;51.922;6.480;2024-01-25T01:11:52;28.77;;;4.97;;
84745;SDS011;74975;51.922;6.480;2024-01-25T01:14:32;23.67;;;5.68;;
84745;SDS011;74975;51.922;6.480;2024-01-25T01:17:08;26.15;;;5.80;;
84745;SDS011;74975;51.922;6.480;2024-01-25T01:19:46;31.40;;;5.53;;
84745;SDS011;74975;51.922;6.480;2024-01-25T01:22:20;27.00;;;5.82;;
84745;SDS011;74975;51.922;6.480;2024-01-25T01:24:58;27.52;;;5.70;;
84745;SDS011;74975;51.922;6.480;2024-01-25T01:27:38;32.55;;;7.32;;
84745;SDS011;74975;51.922;6.480;2024-01-25T01:30:13;24.88;;;5.53;;
84745;SDS011;74975;51.922;6.480;2024-01-25T01:32:50;24.60;;;5.53;;
84745;SDS011;74975;51.922;6.480;2024-01-25T01:35:18;34.53;;;7.15;;
84745;SDS011;74975;51.922;6.480;2024-01-25T01:37:53;29.17;;;6.57;;
84745;SDS011;74975;51.922;6.480;2024-01-25T01:40:26;23.85;;;7.18;;
84745;SDS011;74975;51.922;6.480;2024-01-25T01:43:04;13.98;;;4.22;;
84745;SDS011;74975;51.922;6.480;2024-01-25T01:45:39;17.98;;;5.95;;
84745;SDS011;74975;51.922;6.480;2024-01-25T01:48:07;29.00;;;5.53;;
84745;SDS011;74975;51.922;6.480;2024-01-25T01:50:43;20.40;;;5.88;;
84745;SDS011;74975;51.922;6.480;2024-01-25T01:53:15;30.92;;;7.03;;
84745;SDS011;74975;51.922;6.480;2024-01-25T01:55:49;28.33;;;6.00;;
84745;SDS011;74975;51.922;6.480;2024-01-25T01:58:23;33.67;;;5.50;;
84745;SDS011;74975;51.922;6.480;2024-01-25T02:00:59;25.77;;;6.95;;
84745;SDS011;74975;51.922;6.480;2024-01-25T02:03:29;27.73;;;6.65;;
84745;SDS011;74975;51.922;6.480;2024-01-25T02:06:09;27.08;;;5.22;;
84745;SDS011;74975;51.922;6.480;2024-01-25T02:08:47;26.13;;;5.63;;
84745;SDS011;74975;51.922;6.480;2024-01-25T02:11:18;24.23;;;5.60;;
84745;SDS011;74975;51.922;6.480;2024-01-25T02:13:53;21.08;;;4.95;;
84745;SDS011;74975;51.922;6.480;2024-01-25T02:16:31;28.17;;;9.63;;
84745;SDS011;74975;51.922;6.480;2024-01-25T02:19:07;20.17;;;4.35;;
84745;SDS011;74975;51.922;6.480;2024-01-25T02:21:42;24.65;;;4.82;;
84745;SDS011;74975;51.922;6.480;2024-01-25T02:24:09;19.90;;;5.75;;
84745;SDS011;74975;51.922;6.480;2024-01-25T02:26:46;33.53;;;6.20;;
84745;SDS011;74975;51.922;6.480;2024-01-25T02:29:21;36.75;;;6.40;;
84745;SDS011;74975;51.922;6.480;2024-01-25T02:31:51;27.00;;;5.88;;
84745;SDS011;74975;51.922;6.480;2024-01-25T02:34:27;17.67;;;5.55;;
84745;SDS011;74975;51.922;6.480;2024-01-25T02:36:59;19.20;;;5.07;;
84745;SDS011;74975;51.922;6.480;2024-01-25T02:39:28;26.13;;;6.70;;
84745;SDS011;74975;51.922;6.480;2024-01-25T02:42:07;21.90;;;4.95;;
84745;SDS011;74975;51.922;6.480;2024-01-25T02:44:43;32.40;;;6.32;;
84745;SDS011;74975;51.922;6.480;2024-01-25T02:47:16;32.78;;;6.13;;
84745;SDS011;74975;51.922;6.480;2024-01-25T02:49:54;19.60;;;5.82;;
84745;SDS011;74975;51.922;6.480;2024-01-25T02:52:30;25.80;;;7.30;;
84745;SDS011;74975;51.922;6.480;2024-01-25T02:55:08;29.67;;;7.78;;
84745;SDS011;74975;51.922;6.480;2024-01-25T02:57:39;34.30;;;6.43;;
84745;SDS011;74975;51.922;6.480;2024-01-25T03:00:14;21.63;;;6.95;;
84745;SDS011;74975;51.922;6.480;2024-01-25T03:02:52;21.25;;;5.18;;
84745;SDS011;74975;51.922;6.480;2024-01-25T03:05:30;32.25;;;8.15;;
84745;SDS011;74975;51.922;6.480;2024-01-25T03:08:08;27.63;;;5.40;;
84745;SDS011;74975;51.922;6.480;2024-01-25T03:10:37;25.13;;;4.47;;
84745;SDS011;74975;51.922;6.480;2024-01-25T03:13:10;21.00;;;6.15;;
84745;SDS011;74975;51.922;6.480;2024-01-25T03:15:47;35.42;;;6.55;;
84745;SDS011;74975;51.922;6.480;2024-01-25T03:18:18;24.30;;;5.80;;
84745;SDS011;74975;51.922;6.480;2024-01-25T03:20:59;31.55;;;6.07;;
84745;SDS011;74975;51.922;6.480;2024-01-25T03:23:34;31.08;;;6.15;;
84745;SDS011;74975;51.922;6.480;2024-01-25T03:26:06;19.63;;;5.55;;
84745;SDS011;74975;51.922;6.480;2024-01-25T03:28:37;35.20;;;7.50;;
84745;SDS011;74975;51.922;6.480;2024-01-25T03:31:11;28.95;;;5.90;;
84745;SDS011;74975;51.922;6.480;2024-01-25T03:33:46;39.78;;;8.90;;
84745;SDS011;74975;51.922;6.480;2024-01-25T03:36:25;24.83;;;7.78;;
84745;SDS011;74975;51.922;6.480;2024-01-25T03:38:59;23.92;;;5.60;;
84745;SDS011;74975;51.922;6.480;2024-01-25T03:41:38;27.88;;;6.35;;
84745;SDS011;74975;51.922;6.480;2024-01-25T03:44:07;34.38;;;7.72;;
84745;SDS011;74975;51.922;6.480;2024-01-25T03:46:35;32.38;;;6.93;;
84745;SDS011;74975;51.922;6.480;2024-01-25T03:49:17;26.65;;;6.05;;
84745;SDS011;74975;51.922;6.480;2024-01-25T03:51:50;20.67;;;5.03;;
84745;SDS011;74975;51.922;6.480;2024-01-25T03:54:21;32.42;;;6.13;;
84745;SDS011;74975;51.922;6.480;2024-01-25T03:56:53;31.95;;;5.55;;
84745;SDS011;74975;51.922;6.480;2024-01-25T03:59:25;27.70;;;7.20;;
84745;SDS011;74975;51.922;6.480;2024-01-25T04:02:03;32.55;;;5.95;;
84745;SDS011;74975;51.922;6.480;2024-01-25T04:04:35;38.75;;;6.50;;
84745;SDS011;74975;51.922;6.480;2024-01-25T04:07:14;40.95;;;7.28;;
84745;SDS011;74975;51.922;6.480;2024-01-25T04:09:42;22.55;;;5.32;;
84745;SDS011;74975;51.922;6.480;2024-01-25T04:12:22;28.23;;;6.00;;
84745;SDS011;74975;51.922;6.480;2024-01-25T04:17:27;25.52;;;5.05;;
84745;SDS011;74975;51.922;6.480;2024-01-25T04:20:02;28.90;;;5.35;;
84745;SDS011;74975;51.922;6.480;2024-01-25T04:22:34;29.35;;;5.78;;
84745;SDS011;74975;51.922;6.480;2024-01-25T04:25:12;30.02;;;6.07;;
84745;SDS011;74975;51.922;6.480;2024-01-25T04:27:51;12.82;;;4.63;;
84745;SDS011;74975;51.922;6.480;2024-01-25T04:30:26;23.92;;;5.30;;
84745;SDS011;74975;51.922;6.480;2024-01-25T04:33:01;24.55;;;5.57;;
84745;SDS011;74975;51.922;6.480;2024-01-25T04:35:32;31.92;;;5.47;;
84745;SDS011;74975;51.922;6.480;2024-01-25T04:38:07;26.65;;;5.43;;
84745;SDS011;74975;51.922;6.480;2024-01-25T04:40:37;26.27;;;6.47;;
84745;SDS011;74975;51.922;6.480;2024-01-25T04:43:09;31.92;;;5.05;;
84745;SDS011;74975;51.922;6.480;2024-01-25T04:45:44;24.45;;;5.45;;
84745;SDS011;74975;51.922;6.480;2024-01-25T04:48:22;45.47;;;6.15;;
84745;SDS011;74975;51.922;6.480;2024-01-25T04:51:01;28.00;;;5.95;;
84745;SDS011;74975;51.922;6.480;2024-01-25T04:53:33;24.60;;;6.80;;
84745;SDS011;74975;51.922;6.480;2024-01-25T04:56:05;21.27;;;4.30;;
84745;SDS011;74975;51.922;6.480;2024-01-25T04:58:44;31.25;;;5.97;;
84745;SDS011;74975;51.922;6.480;2024-01-25T05:01:19;37.83;;;6.15;;
84745;SDS011;74975;51.922;6.480;2024-01-25T05:03:52;40.75;;;6.78;;
84745;SDS011;74975;51.922;6.480;2024-01-25T05:06:27;35.92;;;7.18;;
84745;SDS011;74975;51.922;6.480;2024-01-25T05:09:06;27.38;;;6.28;;
84745;SDS011;74975;51.922;6.480;2024-01-25T05:14:18;32.17;;;6.30;;
84745;SDS011;74975;51.922;6.480;2024-01-25T05:16:57;34.08;;;6.45;;
84745;SDS011;74975;51.922;6.480;2024-01-25T05:19:33;33.50;;;5.03;;
84745;SDS011;74975;51.922;6.480;2024-01-25T05:22:04;32.60;;;6.20;;
84745;SDS011;74975;51.922;6.480;2024-01-25T05:24:37;28.60;;;6.00;;
84745;SDS011;74975;51.922;6.480;2024-01-25T05:27:12;36.88;;;7.85;;
84745;SDS011;74975;51.922;6.480;2024-01-25T05:29:52;37.78;;;7.18;;
84745;SDS011;74975;51.922;6.480;2024-01-25T05:32:25;47.60;;;6.43;;
84745;SDS011;74975;51.922;6.480;2024-01-25T05:34:59;32.25;;;7.05;;
84745;SDS011;74975;51.922;6.480;2024-01-25T05:37:37;30.52;;;6.05;;
84745;SDS011;74975;51.922;6.480;2024-01-25T05:40:08;41.05;;;6.82;;
84745;SDS011;74975;51.922;6.480;2024-01-25T05:42:44;33.42;;;6.95;;
84745;SDS011;74975;51.922;6.480;2024-01-25T05:45:15;35.70;;;6.65;;
84745;SDS011;74975;51.922;6.480;2024-01-25T05:47:50;50.13;;;9.40;;
84745;SDS011;74975;51.922;6.480;2024-01-25T05:50:30;26.95;;;7.97;;
84745;SDS011;74975;51.922;6.480;2024-01-25T05:53:01;32.35;;;6.63;;
84745;SDS011;74975;51.922;6.480;2024-01-25T05:55:33;33.55;;;7.07;;
84745;SDS011;74975;51.922;6.480;2024-01-25T05:58:04;32.28;;;6.70;;
84745;SDS011;74975;51.922;6.480;2024-01-25T06:00:36;32.85;;;6.47;;
84745;SDS011;74975;51.922;6.480;2024-01-25T06:03:09;41.40;;;6.63;;
84745;SDS011;74975;51.922;6.480;2024-01-25T06:05:41;30.60;;;7.68;;
84745;SDS011;74975;51.922;6.480;2024-01-25T06:08:16;29.15;;;6.57;;
84745;SDS011;74975;51.922;6.480;2024-01-25T06:10:47;34.90;;;6.72;;
84745;SDS011;74975;51.922;6.480;2024-01-25T06:13:21;24.30;;;5.72;;
84745;SDS011;74975;51.922;6.480;2024-01-25T06:15:57;33.38;;;7.03;;
84745;SDS011;74975;51.922;6.480;2024-01-25T06:18:34;38.05;;;7.55;;
84745;SDS011;74975;51.922;6.480;2024-01-25T06:21:10;36.17;;;6.88;;
84745;SDS011;74975;51.922;6.480;2024-01-25T06:23:45;25.60;;;6.80;;
84745;SDS011;74975;51.922;6.480;2024-01-25T06:26:16;23.52;;;5.57;;
84745;SDS011;74975;51.922;6.480;2024-01-25T06:28:47;33.05;;;7.97;;
84745;SDS011;74975;51.922;6.480;2024-01-25T06:31:19;27.30;;;7.30;;
84745;SDS011;74975;51.922;6.480;2024-01-25T06:33:54;24.00;;;6.38;;
84745;SDS011;74975;51.922;6.480;2024-01-25T06:36:40;30.40;;;7.15;;
84745;SDS011;74975;51.922;6.480;2024-01-25T06:39:11;37.15;;;7.47;;
84745;SDS011;74975;51.922;6.480;2024-01-25T06:41:50;44.63;;;7.22;;
84745;SDS011;74975;51.922;6.480;2024-01-25T06:44:22;38.92;;;7.68;;
84745;SDS011;74975;51.922;6.480;2024-01-25T06:46:54;34.00;;;8.90;;
84745;SDS011;74975;51.922;6.480;2024-01-25T06:49:25;29.25;;;7.22;;
84745;SDS011;74975;51.922;6.480;2024-01-25T06:52:01;35.38;;;8.48;;
84745;SDS011;74975;51.922;6.480;2024-01-25T06:54:40;26.60;;;6.72;;
84745;SDS011;74975;51.922;6.480;2024-01-25T06:57:14;27.23;;;6.65;;
84745;SDS011;74975;51.922;6.480;2024-01-25T06:59:46;23.83;;;6.45;;
84745;SDS011;74975;51.922;6.480;2024-01-25T07:02:22;28.70;;;7.15;;
84745;SDS011;74975;51.922;6.480;2024-01-25T07:05:04;29.02;;;6.30;;
84745;SDS011;74975;51.922;6.480;2024-01-25T07:07:42;27.67;;;8.43;;
84745;SDS011;74975;51.922;6.480;2024-01-25T07:10:17;29.88;;;7.13;;
84745;SDS011;74975;51.922;6.480;2024-01-25T07:12:55;19.50;;;7.38;;
84745;SDS011;74975;51.922;6.480;2024-01-25T07:15:26;33.60;;;8.73;;
84745;SDS011;74975;51.922;6.480;2024-01-25T07:17:58;26.90;;;8.63;;
84745;SDS011;74975;51.922;6.480;2024-01-25T07:20:32;21.10;;;8.52;;
84745;SDS011;74975;51.922;6.480;2024-01-25T07:23:03;29.42;;;9.30;;
84745;SDS011;74975;51.922;6.480;2024-01-25T07:25:35;33.95;;;10.63;;
84745;SDS011;74975;51.922;6.480;2024-01-25T07:28:06;33.53;;;9.23;;
84745;SDS011;74975;51.922;6.480;2024-01-25T07:30:41;29.05;;;9.50;;
84745;SDS011;74975;51.922;6.480;2024-01-25T07:33:18;24.73;;;7.45;;
84745;SDS011;74975;51.922;6.480;2024-01-25T07:35:50;42.70;;;9.32;;
84745;SDS011;74975;51.922;6.480;2024-01-25T07:38:29;25.42;;;6.82;;
84745;SDS011;74975;51.922;6.480;2024-01-25T07:41:01;34.38;;;8.05;;
84745;SDS011;74975;51.922;6.480;2024-01-25T07:43:35;27.88;;;7.93;;
84745;SDS011;74975;51.922;6.480;2024-01-25T07:46:14;27.55;;;8.20;;
84745;SDS011;74975;51.922;6.480;2024-01-25T07:48:51;29.48;;;8.05;;
84745;SDS011;74975;51.922;6.480;2024-01-25T07:51:25;22.02;;;7.35;;
84745;SDS011;74975;51.922;6.480;2024-01-25T07:53:59;26.60;;;10.05;;
84745;SDS011;74975;51.922;6.480;2024-01-25T07:56:38;27.48;;;8.65;;
84745;SDS011;74975;51.922;6.480;2024-01-25T07:59:14;33.17;;;10.15;;
84745;SDS011;74975;51.922;6.480;2024-01-25T08:04:21;32.60;;;8.88;;
84745;SDS011;74975;51.922;6.480;2024-01-25T08:06:52;38.03;;;9.45;;
84745;SDS011;74975;51.922;6.480;2024-01-25T08:09:30;23.00;;;8.15;;
84745;SDS011;74975;51.922;6.480;2024-01-25T08:14:37;30.40;;;9.30;;
84745;SDS011;74975;51.922;6.480;2024-01-25T08:17:14;32.10;;;9.00;;
84745;SDS011;74975;51.922;6.480;2024-01-25T08:19:46;32.30;;;8.70;;
84745;SDS011;74975;51.922;6.480;2024-01-25T08:22:16;32.30;;;9.43;;
84745;SDS011;74975;51.922;6.480;2024-01-25T08:24:47;33.55;;;7.70;;
84745;SDS011;74975;51.922;6.480;2024-01-25T08:27:23;24.10;;;7.75;;
84745;SDS011;74975;51.922;6.480;2024-01-25T08:29:55;24.67;;;7.40;;
84745;SDS011;74975;51.922;6.480;2024-01-25T08:32:30;29.30;;;8.10;;
84745;SDS011;74975;51.922;6.480;2024-01-25T08:35:02;34.75;;;12.30;;
84745;SDS011;74975;51.922;6.480;2024-01-25T08:37:38;34.60;;;9.57;;
84745;SDS011;74975;51.922;6.480;2024-01-25T08:40:15;38.63;;;9.73;;
84745;SDS011;74975;51.922;6.480;2024-01-25T08:42:54;31.08;;;11.57;;
84745;SDS011;74975;51.922;6.480;2024-01-25T08:45:26;44.28;;;9.55;;
84745;SDS011;74975;51.922;6.480;2024-01-25T08:47:57;36.45;;;11.68;;
84745;SDS011;74975;51.922;6.480;2024-01-25T08:50:31;34.33;;;9.35;;
84745;SDS011;74975;51.922;6.480;2024-01-25T08:53:04;33.47;;;8.88;;
84745;SDS011;74975;51.922;6.480;2024-01-25T08:55:39;42.22;;;9.15;;
84745;SDS011;74975;51.922;6.480;2024-01-25T08:58:14;25.90;;;8.57;;
84745;SDS011;74975;51.922;6.480;2024-01-25T09:00:56;29.85;;;8.88;;
84745;SDS011;74975;51.922;6.480;2024-01-25T09:03:27;24.95;;;8.75;;
84745;SDS011;74975;51.922;6.480;2024-01-25T09:06:02;31.10;;;9.57;;
84745;SDS011;74975;51.922;6.480;2024-01-25T09:08:36;22.63;;;8.20;;
84745;SDS011;74975;51.922;6.480;2024-01-25T09:11:09;31.55;;;8.85;;
84745;SDS011;74975;51.922;6.480;2024-01-25T09:13:40;27.48;;;8.35;;
84745;SDS011;74975;51.922;6.480;2024-01-25T09:16:16;18.52;;;7.65;;
84745;SDS011;74975;51.922;6.480;2024-01-25T09:18:47;26.67;;;9.45;;
84745;SDS011;74975;51.922;6.480;2024-01-25T09:21:19;28.27;;;7.65;;
84745;SDS011;74975;51.922;6.480;2024-01-25T09:23:52;28.92;;;8.50;;
84745;SDS011;74975;51.922;6.480;2024-01-25T09:26:23;21.63;;;7.75;;
84745;SDS011;74975;51.922;6.480;2024-01-25T09:29:01;32.08;;;10.38;;
84745;SDS011;74975;51.922;6.480;2024-01-25T09:31:37;27.60;;;8.25;;
84745;SDS011;74975;51.922;6.480;2024-01-25T09:34:08;24.40;;;9.35;;
84745;SDS011;74975;51.922;6.480;2024-01-25T09:36:42;24.00;;;8.07;;
84745;SDS011;74975;51.922;6.480;2024-01-25T09:39:17;34.47;;;9.63;;
84745;SDS011;74975;51.922;6.480;2024-01-25T09:41:49;24.38;;;8.63;;
84745;SDS011;74975;51.922;6.480;2024-01-25T09:44:24;23.55;;;7.22;;
84745;SDS011;74975;51.922;6.480;2024-01-25T09:46:56;29.17;;;8.10;;
84745;SDS011;74975;51.922;6.480;2024-01-25T09:49:28;26.25;;;8.15;;
84745;SDS011;74975;51.922;6.480;2024-01-25T09:51:59;28.63;;;9.40;;
84745;SDS011;74975;51.922;6.480;2024-01-25T09:54:39;27.13;;;10.93;;
84745;SDS011;74975;51.922;6.480;2024-01-25T09:59:57;21.10;;;7.50;;
84745;SDS011;74975;51.922;6.480;2024-01-25T10:02:29;21.10;;;8.20;;
84745;SDS011;74975;51.922;6.480;2024-01-25T10:05:00;31.17;;;10.68;;
84745;SDS011;74975;51.922;6.480;2024-01-25T10:07:40;25.30;;;9.55;;
84745;SDS011;74975;51.922;6.480;2024-01-25T10:10:13;27.88;;;9.95;;
84745;SDS011;74975;51.922;6.480;2024-01-25T10:12:45;28.40;;;9.95;;
84745;SDS011;74975;51.922;6.480;2024-01-25T10:15:17;22.25;;;8.98;;
84745;SDS011;74975;51.922;6.480;2024-01-25T10:17:54;32.00;;;9.65;;
84745;SDS011;74975;51.922;6.480;2024-01-25T10:20:26;26.67;;;9.68;;
84745;SDS011;74975;51.922;6.480;2024-01-25T10:23:05;23.77;;;9.40;;
84745;SDS011;74975;51.922;6.480;2024-01-25T10:25:41;28.88;;;10.13;;
84745;SDS011;74975;51.922;6.480;2024-01-25T10:28:12;20.77;;;7.65;;
84745;SDS011;74975;51.922;6.480;2024-01-25T10:30:44;18.50;;;8.93;;
84745;SDS011;74975;51.922;6.480;2024-01-25T10:33:18;27.70;;;10.30;;
84745;SDS011;74975;51.922;6.480;2024-01-25T10:35:50;22.92;;;11.43;;
84745;SDS011;74975;51.922;6.480;2024-01-25T10:38:26;23.02;;;11.07;;
84745;SDS011;74975;51.922;6.480;2024-01-25T10:41:05;30.95;;;11.80;;
84745;SDS011;74975;51.922;6.480;2024-01-25T10:43:44;26.33;;;9.75;;
84745;SDS011;74975;51.922;6.480;2024-01-25T10:46:18;27.17;;;8.75;;
84745;SDS011;74975;51.922;6.480;2024-01-25T10:48:44;25.55;;;12.15;;
84745;SDS011;74975;51.922;6.480;2024-01-25T10:51:24;22.73;;;8.55;;
84745;SDS011;74975;51.922;6.480;2024-01-25T10:53:57;30.42;;;10.18;;
84745;SDS011;74975;51.922;6.480;2024-01-25T10:56:29;30.02;;;10.95;;
84745;SDS011;74975;51.922;6.480;2024-01-25T10:59:00;29.77;;;10.18;;
84745;SDS011;74975;51.922;6.480;2024-01-25T11:01:37;17.52;;;9.27;;
84745;SDS011;74975;51.922;6.480;2024-01-25T11:04:24;29.45;;;11.55;;
84745;SDS011;74975;51.922;6.480;2024-01-25T11:07:10;31.90;;;9.77;;
84745;SDS011;74975;51.922;6.480;2024-01-25T11:09:44;32.47;;;10.90;;
84745;SDS011;74975;51.922;6.480;2024-01-25T11:12:20;16.80;;;8.45;;
84745;SDS011;74975;51.922;6.480;2024-01-25T11:14:56;20.75;;;9.25;;
84745;SDS011;74975;51.922;6.480;2024-01-25T11:17:37;33.63;;;15.95;;
84745;SDS011;74975;51.922;6.480;2024-01-25T11:20:08;28.20;;;8.20;;
84745;SDS011;74975;51.922;6.480;2024-01-25T11:22:44;30.92;;;9.43;;
84745;SDS011;74975;51.922;6.480;2024-01-25T11:25:22;26.30;;;8.73;;
84745;SDS011;74975;51.922;6.480;2024-01-25T11:27:54;30.70;;;9.90;;
84745;SDS011;74975;51.922;6.480;2024-01-25T11:30:36;27.58;;;10.13;;
84745;SDS011;74975;51.922;6.480;2024-01-25T11:33:11;25.67;;;8.95;;
84745;SDS011;74975;51.922;6.480;2024-01-25T11:35:53;24.23;;;9.35;;
84745;SDS011;74975;51.922;6.480;2024-01-25T11:38:29;26.10;;;8.63;;
84745;SDS011;74975;51.922;6.480;2024-01-25T11:41:04;29.85;;;9.23;;
84745;SDS011;74975;51.922;6.480;2024-01-25T11:43:39;23.63;;;8.70;;
84745;SDS011;74975;51.922;6.480;2024-01-25T11:46:11;25.50;;;8.85;;
84745;SDS011;74975;51.922;6.480;2024-01-25T11:48:46;27.27;;;11.55;;
84745;SDS011;74975;51.922;6.480;2024-01-25T11:51:20;34.50;;;11.07;;
84745;SDS011;74975;51.922;6.480;2024-01-25T11:53:52;25.60;;;9.75;;
84745;SDS011;74975;51.922;6.480;2024-01-25T11:59:04;19.67;;;7.30;;
84745;SDS011;74975;51.922;6.480;2024-01-25T12:01:39;30.65;;;8.85;;
84745;SDS011;74975;51.922;6.480;2024-01-25T12:04:18;21.83;;;6.57;;
84745;SDS011;74975;51.922;6.480;2024-01-25T12:06:59;24.85;;;8.18;;
84745;SDS011;74975;51.922;6.480;2024-01-25T12:09:31;27.85;;;8.88;;
84745;SDS011;74975;51.922;6.480;2024-01-25T12:12:05;28.63;;;9.98;;
84745;SDS011;74975;51.922;6.480;2024-01-25T12:14:37;22.33;;;7.38;;
84745;SDS011;74975;51.922;6.480;2024-01-25T12:17:12;22.02;;;9.88;;
84745;SDS011;74975;51.922;6.480;2024-01-25T12:19:45;16.02;;;6.25;;
84745;SDS011;74975;51.922;6.480;2024-01-25T12:22:19;18.83;;;5.55;;
84745;SDS011;74975;51.922;6.480;2024-01-25T12:25:01;19.08;;;6.82;;
84745;SDS011;74975;51.922;6.480;2024-01-25T12:27:40;28.25;;;8.35;;
84745;SDS011;74975;51.922;6.480;2024-01-25T12:30:13;22.08;;;8.25;;
84745;SDS011;74975;51.922;6.480;2024-01-25T12:32:42;17.98;;;6.00;;
84745;SDS011;74975;51.922;6.480;2024-01-25T12:35:19;24.52;;;8.18;;
84745;SDS011;74975;51.922;6.480;2024-01-25T12:37:54;17.45;;;6.97;;
84745;SDS011;74975;51.922;6.480;2024-01-25T12:40:26;17.80;;;6.63;;
84745;SDS011;74975;51.922;6.480;2024-01-25T12:42:57;29.88;;;8.70;;
84745;SDS011;74975;51.922;6.480;2024-01-25T12:45:28;23.77;;;8.27;;
84745;SDS011;74975;51.922;6.480;2024-01-25T12:48:00;14.98;;;6.25;;
84745;SDS011;74975;51.922;6.480;2024-01-25T12:50:33;23.55;;;7.53;;
84745;SDS011;74975;51.922;6.480;2024-01-25T12:53:05;19.60;;;6.80;;
84745;SDS011;74975;51.922;6.480;2024-01-25T12:55:37;19.00;;;7.90;;
84745;SDS011;74975;51.922;6.480;2024-01-25T12:58:10;25.35;;;9.85;;
84745;SDS011;74975;51.922;6.480;2024-01-25T13:00:41;19.27;;;6.30;;
84745;SDS011;74975;51.922;6.480;2024-01-25T13:03:14;20.98;;;6.75;;
84745;SDS011;74975;51.922;6.480;2024-01-25T13:05:48;28.65;;;7.65;;
84745;SDS011;74975;51.922;6.480;2024-01-25T13:08:20;26.58;;;8.25;;
84745;SDS011;74975;51.922;6.480;2024-01-25T13:10:59;30.85;;;9.07;;
84745;SDS011;74975;51.922;6.480;2024-01-25T13:13:31;11.93;;;6.18;;
84745;SDS011;74975;51.922;6.480;2024-01-25T13:16:09;22.05;;;6.95;;
84745;SDS011;74975;51.922;6.480;2024-01-25T13:18:38;23.95;;;8.00;;
84745;SDS011;74975;51.922;6.480;2024-01-25T13:21:10;32.50;;;7.38;;
84745;SDS011;74975;51.922;6.480;2024-01-25T13:23:49;22.50;;;7.00;;
84745;SDS011;74975;51.922;6.480;2024-01-25T13:26:20;22.52;;;6.82;;
84745;SDS011;74975;51.922;6.480;2024-01-25T13:28:54;18.52;;;9.60;;
84745;SDS011;74975;51.922;6.480;2024-01-25T13:31:28;21.90;;;9.27;;
84745;SDS011;74975;51.922;6.480;2024-01-25T13:34:06;21.08;;;8.85;;
84745;SDS011;74975;51.922;6.480;2024-01-25T13:36:37;19.67;;;9.38;;
84745;SDS011;74975;51.922;6.480;2024-01-25T13:39:10;27.27;;;7.35;;
84745;SDS011;74975;51.922;6.480;2024-01-25T13:41:44;20.17;;;6.90;;
84745;SDS011;74975;51.922;6.480;2024-01-25T13:44:24;26.30;;;8.95;;
84745;SDS011;74975;51.922;6.480;2024-01-25T13:46:50;19.38;;;7.72;;
84745;SDS011;74975;51.922;6.480;2024-01-25T13:49:27;22.70;;;9.30;;
84745;SDS011;74975;51.922;6.480;2024-01-25T13:51:59;22.05;;;6.90;;
84745;SDS011;74975;51.922;6.480;2024-01-25T13:54:29;24.58;;;11.02;;
84745;SDS011;74975;51.922;6.480;2024-01-25T13:57:04;31.23;;;11.70;;
84745;SDS011;74975;51.922;6.480;2024-01-25T13:59:35;17.85;;;8.38;;
84745;SDS011;74975;51.922;6.480;2024-01-25T14:02:07;11.70;;;6.68;;
84745;SDS011;74975;51.922;6.480;2024-01-25T14:04:39;18.92;;;8.30;;
84745;SDS011;74975;51.922;6.480;2024-01-25T14:07:13;20.02;;;8.88;;
84745;SDS011;74975;51.922;6.480;2024-01-25T14:09:49;19.42;;;8.50;;
84745;SDS011;74975;51.922;6.480;2024-01-25T14:12:20;32.42;;;9.45;;
84745;SDS011;74975;51.922;6.480;2024-01-25T14:14:52;21.67;;;10.55;;
84745;SDS011;74975;51.922;6.480;2024-01-25T14:17:23;23.85;;;9.30;;
84745;SDS011;74975;51.922;6.480;2024-01-25T14:19:55;19.85;;;9.15;;
84745;SDS011;74975;51.922;6.480;2024-01-25T14:22:26;29.10;;;11.90;;
84745;SDS011;74975;51.922;6.480;2024-01-25T14:24:59;32.22;;;11.45;;
84745;SDS011;74975;51.922;6.480;2024-01-25T14:27:33;35.05;;;11.93;;
84745;SDS011;74975;51.922;6.480;2024-01-25T14:30:05;30.65;;;13.77;;
84745;SDS011;74975;51.922;6.480;2024-01-25T14:32:40;25.80;;;12.30;;
84745;SDS011;74975;51.922;6.480;2024-01-25T14:35:12;33.85;;;16.63;;
84745;SDS011;74975;51.922;6.480;2024-01-25T14:37:48;28.98;;;12.75;;
84745;SDS011;74975;51.922;6.480;2024-01-25T14:40:20;33.13;;;14.18;;
84745;SDS011;74975;51.922;6.480;2024-01-25T14:42:54;30.27;;;13.82;;
84745;SDS011;74975;51.922;6.480;2024-01-25T14:45:31;37.33;;;17.67;;
84745;SDS011;74975;51.922;6.480;2024-01-25T14:48:07;39.47;;;14.40;;
84745;SDS011;74975;51.922;6.480;2024-01-25T14:50:44;37.47;;;15.68;;
84745;SDS011;74975;51.922;6.480;2024-01-25T14:53:15;37.10;;;17.08;;
84745;SDS011;74975;51.922;6.480;2024-01-25T14:55:53;29.05;;;13.35;;
84745;SDS011;74975;51.922;6.480;2024-01-25T14:58:32;32.58;;;12.90;;
84745;SDS011;74975;51.922;6.480;2024-01-25T15:01:03;38.65;;;18.38;;
84745;SDS011;74975;51.922;6.480;2024-01-25T15:03:35;39.83;;;18.02;;
84745;SDS011;74975;51.922;6.480;2024-01-25T15:06:13;39.65;;;17.35;;
84745;SDS011;74975;51.922;6.480;2024-01-25T15:08:44;41.75;;;18.10;;
84745;SDS011;74975;51.922;6.480;2024-01-25T15:11:17;36.80;;;17.60;;
84745;SDS011;74975;51.922;6.480;2024-01-25T15:13:53;36.10;;;15.98;;
84745;SDS011;74975;51.922;6.480;2024-01-25T15:16:25;38.25;;;15.48;;
84745;SDS011;74975;51.922;6.480;2024-01-25T15:21:31;27.20;;;16.98;;
84745;SDS011;74975;51.922;6.480;2024-01-25T15:24:02;32.03;;;11.63;;
84745;SDS011;74975;51.922;6.480;2024-01-25T15:26:34;45.55;;;14.75;;
84745;SDS011;74975;51.922;6.480;2024-01-25T15:29:14;36.65;;;14.80;;
84745;SDS011;74975;51.922;6.480;2024-01-25T15:31:50;37.88;;;13.93;;
84745;SDS011;74975;51.922;6.480;2024-01-25T15:34:21;38.22;;;13.98;;
84745;SDS011;74975;51.922;6.480;2024-01-25T15:36:52;39.08;;;12.70;;